Terminal Aerodrome Forecast
Issued by NWS Wilmington, OH

Current Version | Previous Version | Graphics & Text | Print | Product List | Glossary On
Versions: 1 2 3 4 5 6 7 8 9 10 11 12 13 14 15 16 17 18 19 20 21 22 23 24 25 26 27 28 29
000
FTUS41 KILN 291700
TAFCVG
TAF
KCVG 291731Z 2918/3024 24014G25KT P6SM OVC025
     FM292000 28015G25KT P6SM VCSH OVC012
     FM300200 30012G20KT P6SM OVC015
     FM300900 33012G20KT P6SM OVC022
     FM301400 33012G18KT P6SM SCT035
     FM301800 34011KT P6SM SCT250=

USA.gov is the U.S. government's official web portal to all federal, state and local government web resources and services.